Weather at Choirokoitia Helipad [CLOSED]

Public forecast

Using degrees Celsius for public forecast. Weather courtesy of forecast.io.

Closest aviation weather report (METAR) to Choirokoitia Helipad

Closest report is Larnaca International Airport, 14.3 nm (26.5 km) ENE.

2024/07/21 23:30 (retrieved 10 minutes ago)

LCLK 212330Z 00000KT CAVOK 27/25 Q1003 NOSIG

Closest aviation forecast (TAF) to Choirokoitia Helipad

Closest forecast is Larnaca International Airport, 14.3 nm (26.5 km) ENE.

2024/07/21 18:32 (retrieved 5 hours ago)

TAF LCLK 211730Z 2118/2218 22014KT 9999 FEW014 BECMG 2120/2123 VRB02KT PROB30 TEMPO 2121/2206 5000 BR BKN006 PROB40 TEMPO 2200/2205 1200 VCFG BKN001 BECMG 2208/2211 19016KT BECMG 2216/2218 25006KT